Tolar, New Mexico
Current Conditions -  °F | °C
As of 6:56 PM on Thursday 18 Dec 2014 (Local Time) from K4MR Reporting Station
Overcast Overcast  
Wind Chill:   Ceiling: 7000
Heat Index:   Visibility: 10mi
Dew Point: -5°   Wind: 7mph
Humidity: 38%   Direction: 210°SSW
Pressure: 30.08"   Gusts: NA
Location:  34.3861°N, 104.044°W
Report Text: K4MR 190156Z AUTO 21006KT 10SM OVC070 08/M05 A3008 RMK AO2 SLP181 T00841053
Loading
Personal Weather Stations






























Interactive Weather Map New forecast layout! Learn more

10-Day Weather Forecast

Advertisements
Track Severe Weather on mobile